sensor_id;sensor_type;location;lat;lon;timestamp;temperature;humidity
15115;DHT22;7658;51.456;7.622;2022-09-09T00:01:32;16.90;99.90
15115;DHT22;7658;51.456;7.622;2022-09-09T00:09:47;16.70;99.90
15115;DHT22;7658;51.456;7.622;2022-09-09T00:12:20;16.60;99.90
15115;DHT22;7658;51.456;7.622;2022-09-09T00:22:42;16.50;99.90
15115;DHT22;7658;51.456;7.622;2022-09-09T00:25:12;16.40;99.90
15115;DHT22;7658;51.456;7.622;2022-09-09T00:27:48;16.50;99.90
15115;DHT22;7658;51.456;7.622;2022-09-09T00:30:20;16.40;99.90
15115;DHT22;7658;51.456;7.622;2022-09-09T00:32:50;16.40;99.90
15115;DHT22;7658;51.456;7.622;2022-09-09T00:35:29;16.30;99.90
15115;DHT22;7658;51.456;7.622;2022-09-09T00:38:00;16.20;99.90
15115;DHT22;7658;51.456;7.622;2022-09-09T00:40:32;16.10;99.90
15115;DHT22;7658;51.456;7.622;2022-09-09T00:48:18;16.00;99.90
15115;DHT22;7658;51.456;7.622;2022-09-09T00:50:57;16.00;99.90
15115;DHT22;7658;51.456;7.622;2022-09-09T00:53:38;16.00;99.90
15115;DHT22;7658;51.456;7.622;2022-09-09T00:56:12;16.00;99.90
15115;DHT22;7658;51.456;7.622;2022-09-09T00:58:38;15.90;99.90
15115;DHT22;7658;51.456;7.622;2022-09-09T01:01:10;15.90;99.90
15115;DHT22;7658;51.456;7.622;2022-09-09T01:04:04;15.90;99.90
15115;DHT22;7658;51.456;7.622;2022-09-09T01:06:33;15.90;99.90
15115;DHT22;7658;51.456;7.622;2022-09-09T01:11:38;15.90;99.90
15115;DHT22;7658;51.456;7.622;2022-09-09T01:16:58;15.90;99.90
15115;DHT22;7658;51.456;7.622;2022-09-09T01:19:37;15.90;99.90
15115;DHT22;7658;51.456;7.622;2022-09-09T01:24:38;15.90;99.90
15115;DHT22;7658;51.456;7.622;2022-09-09T01:27:06;15.90;99.90
15115;DHT22;7658;51.456;7.622;2022-09-09T01:29:33;15.90;99.90
15115;DHT22;7658;51.456;7.622;2022-09-09T01:35:03;15.90;99.90
15115;DHT22;7658;51.456;7.622;2022-09-09T01:37:29;15.90;99.90
15115;DHT22;7658;51.456;7.622;2022-09-09T01:39:55;15.90;99.90
15115;DHT22;7658;51.456;7.622;2022-09-09T01:42:21;15.90;99.90
15115;DHT22;7658;51.456;7.622;2022-09-09T01:44:46;15.90;99.90
15115;DHT22;7658;51.456;7.622;2022-09-09T01:47:13;15.90;99.90
15115;DHT22;7658;51.456;7.622;2022-09-09T01:49:40;15.90;99.90
15115;DHT22;7658;51.456;7.622;2022-09-09T01:52:05;15.90;99.90
15115;DHT22;7658;51.456;7.622;2022-09-09T01:54:33;15.90;99.90
15115;DHT22;7658;51.456;7.622;2022-09-09T01:57:23;15.90;99.90
15115;DHT22;7658;51.456;7.622;2022-09-09T02:07:42;16.00;99.90
15115;DHT22;7658;51.456;7.622;2022-09-09T02:12:48;16.00;99.90
15115;DHT22;7658;51.456;7.622;2022-09-09T02:18:27;15.90;99.90
15115;DHT22;7658;51.456;7.622;2022-09-09T02:20:54;16.00;99.90
15115;DHT22;7658;51.456;7.622;2022-09-09T02:23:21;15.90;99.90
15115;DHT22;7658;51.456;7.622;2022-09-09T02:25:48;15.90;99.90
15115;DHT22;7658;51.456;7.622;2022-09-09T02:28:18;15.90;99.90
15115;DHT22;7658;51.456;7.622;2022-09-09T02:30:48;15.80;99.90
15115;DHT22;7658;51.456;7.622;2022-09-09T02:33:19;15.80;99.90
15115;DHT22;7658;51.456;7.622;2022-09-09T02:35:46;15.80;99.90
15115;DHT22;7658;51.456;7.622;2022-09-09T02:38:13;15.90;99.90
15115;DHT22;7658;51.456;7.622;2022-09-09T02:40:40;15.90;99.90
15115;DHT22;7658;51.456;7.622;2022-09-09T02:43:06;15.90;99.90
15115;DHT22;7658;51.456;7.622;2022-09-09T02:48:56;15.90;99.90
15115;DHT22;7658;51.456;7.622;2022-09-09T02:51:32;15.90;99.90
15115;DHT22;7658;51.456;7.622;2022-09-09T02:54:28;15.90;99.90
15115;DHT22;7658;51.456;7.622;2022-09-09T02:57:31;15.90;99.90
15115;DHT22;7658;51.456;7.622;2022-09-09T02:59:50;16.00;99.90
15115;DHT22;7658;51.456;7.622;2022-09-09T03:02:18;16.00;99.90
15115;DHT22;7658;51.456;7.622;2022-09-09T03:04:44;16.00;99.90
15115;DHT22;7658;51.456;7.622;2022-09-09T03:07:10;15.90;99.90
15115;DHT22;7658;51.456;7.622;2022-09-09T03:09:36;15.90;99.90
15115;DHT22;7658;51.456;7.622;2022-09-09T03:12:02;15.90;99.90
15115;DHT22;7658;51.456;7.622;2022-09-09T03:14:29;15.80;99.90
15115;DHT22;7658;51.456;7.622;2022-09-09T03:16:56;15.80;99.90
15115;DHT22;7658;51.456;7.622;2022-09-09T03:19:23;15.70;99.90
15115;DHT22;7658;51.456;7.622;2022-09-09T03:21:49;15.70;99.90
15115;DHT22;7658;51.456;7.622;2022-09-09T03:24:15;15.70;99.90
15115;DHT22;7658;51.456;7.622;2022-09-09T03:26:41;15.70;99.90
15115;DHT22;7658;51.456;7.622;2022-09-09T03:29:11;15.60;99.90
15115;DHT22;7658;51.456;7.622;2022-09-09T03:31:38;15.60;99.90
15115;DHT22;7658;51.456;7.622;2022-09-09T03:34:04;15.70;99.90
15115;DHT22;7658;51.456;7.622;2022-09-09T03:36:30;15.70;99.90
15115;DHT22;7658;51.456;7.622;2022-09-09T03:38:56;15.70;99.90
15115;DHT22;7658;51.456;7.622;2022-09-09T03:41:23;15.70;99.90
15115;DHT22;7658;51.456;7.622;2022-09-09T03:43:54;15.70;99.90
15115;DHT22;7658;51.456;7.622;2022-09-09T03:46:25;15.70;99.90
15115;DHT22;7658;51.456;7.622;2022-09-09T03:48:53;15.70;99.90
15115;DHT22;7658;51.456;7.622;2022-09-09T03:51:20;15.70;99.90
15115;DHT22;7658;51.456;7.622;2022-09-09T03:53:47;15.70;99.90
15115;DHT22;7658;51.456;7.622;2022-09-09T03:56:13;15.60;99.90
15115;DHT22;7658;51.456;7.622;2022-09-09T03:58:38;15.70;99.90
15115;DHT22;7658;51.456;7.622;2022-09-09T04:01:12;15.60;99.90
15115;DHT22;7658;51.456;7.622;2022-09-09T04:03:39;15.60;99.90
15115;DHT22;7658;51.456;7.622;2022-09-09T04:06:06;15.60;99.90
15115;DHT22;7658;51.456;7.622;2022-09-09T04:08:33;15.60;99.90
15115;DHT22;7658;51.456;7.622;2022-09-09T04:11:00;15.60;99.90
15115;DHT22;7658;51.456;7.622;2022-09-09T04:13:28;15.60;99.90
15115;DHT22;7658;51.456;7.622;2022-09-09T04:15:55;15.60;99.90
15115;DHT22;7658;51.456;7.622;2022-09-09T04:18:22;15.60;99.90
15115;DHT22;7658;51.456;7.622;2022-09-09T04:20:50;15.60;99.90
15115;DHT22;7658;51.456;7.622;2022-09-09T04:23:17;15.60;99.90
15115;DHT22;7658;51.456;7.622;2022-09-09T04:25:51;15.60;99.90
15115;DHT22;7658;51.456;7.622;2022-09-09T04:28:18;15.60;99.90
15115;DHT22;7658;51.456;7.622;2022-09-09T04:30:45;15.60;99.90
15115;DHT22;7658;51.456;7.622;2022-09-09T04:33:12;15.60;99.90
15115;DHT22;7658;51.456;7.622;2022-09-09T04:35:38;15.60;99.90
15115;DHT22;7658;51.456;7.622;2022-09-09T04:38:05;15.60;99.90
15115;DHT22;7658;51.456;7.622;2022-09-09T04:40:32;15.60;99.90
15115;DHT22;7658;51.456;7.622;2022-09-09T04:43:00;15.60;99.90
15115;DHT22;7658;51.456;7.622;2022-09-09T04:45:26;15.60;99.90
15115;DHT22;7658;51.456;7.622;2022-09-09T04:47:53;15.70;99.90
15115;DHT22;7658;51.456;7.622;2022-09-09T04:50:19;15.70;99.90
15115;DHT22;7658;51.456;7.622;2022-09-09T04:52:45;15.70;99.90
15115;DHT22;7658;51.456;7.622;2022-09-09T04:55:11;15.70;99.90
15115;DHT22;7658;51.456;7.622;2022-09-09T04:57:38;15.70;99.90
15115;DHT22;7658;51.456;7.622;2022-09-09T05:00:05;15.70;99.90
15115;DHT22;7658;51.456;7.622;2022-09-09T05:02:31;15.70;99.90
15115;DHT22;7658;51.456;7.622;2022-09-09T05:04:58;15.60;99.90
15115;DHT22;7658;51.456;7.622;2022-09-09T05:07:24;15.60;99.90
15115;DHT22;7658;51.456;7.622;2022-09-09T05:09:51;15.70;99.90
15115;DHT22;7658;51.456;7.622;2022-09-09T05:12:17;15.70;99.90
15115;DHT22;7658;51.456;7.622;2022-09-09T05:14:43;15.70;99.90
15115;DHT22;7658;51.456;7.622;2022-09-09T05:17:09;15.70;99.90
15115;DHT22;7658;51.456;7.622;2022-09-09T05:19:36;15.80;99.90
15115;DHT22;7658;51.456;7.622;2022-09-09T05:22:02;15.80;99.90
15115;DHT22;7658;51.456;7.622;2022-09-09T05:24:27;15.80;99.90
15115;DHT22;7658;51.456;7.622;2022-09-09T05:26:53;15.80;99.90
15115;DHT22;7658;51.456;7.622;2022-09-09T05:29:19;15.80;99.90
15115;DHT22;7658;51.456;7.622;2022-09-09T05:31:45;15.80;99.90
15115;DHT22;7658;51.456;7.622;2022-09-09T05:34:12;15.80;99.90
15115;DHT22;7658;51.456;7.622;2022-09-09T05:36:38;15.80;99.90
15115;DHT22;7658;51.456;7.622;2022-09-09T05:39:04;15.80;99.90
15115;DHT22;7658;51.456;7.622;2022-09-09T05:41:30;15.90;99.90
15115;DHT22;7658;51.456;7.622;2022-09-09T05:43:57;15.90;99.90
15115;DHT22;7658;51.456;7.622;2022-09-09T05:46:24;15.90;99.90
15115;DHT22;7658;51.456;7.622;2022-09-09T05:48:53;15.90;99.90
15115;DHT22;7658;51.456;7.622;2022-09-09T05:51:21;15.90;99.90
15115;DHT22;7658;51.456;7.622;2022-09-09T05:53:48;15.90;99.90
15115;DHT22;7658;51.456;7.622;2022-09-09T05:56:16;15.90;99.90
15115;DHT22;7658;51.456;7.622;2022-09-09T05:58:47;15.90;99.90
15115;DHT22;7658;51.456;7.622;2022-09-09T06:01:20;15.90;99.90
15115;DHT22;7658;51.456;7.622;2022-09-09T06:03:48;15.90;99.90
15115;DHT22;7658;51.456;7.622;2022-09-09T06:06:17;16.00;99.90
15115;DHT22;7658;51.456;7.622;2022-09-09T06:08:44;16.00;99.90
15115;DHT22;7658;51.456;7.622;2022-09-09T06:11:19;16.00;99.90
15115;DHT22;7658;51.456;7.622;2022-09-09T06:13:45;16.00;99.90
15115;DHT22;7658;51.456;7.622;2022-09-09T06:16:15;16.10;99.90
15115;DHT22;7658;51.456;7.622;2022-09-09T06:18:42;16.20;99.90
15115;DHT22;7658;51.456;7.622;2022-09-09T06:21:14;16.20;99.90
15115;DHT22;7658;51.456;7.622;2022-09-09T06:23:40;16.20;99.90
15115;DHT22;7658;51.456;7.622;2022-09-09T06:26:11;16.30;99.90
15115;DHT22;7658;51.456;7.622;2022-09-09T06:28:37;16.30;99.90
15115;DHT22;7658;51.456;7.622;2022-09-09T06:31:08;16.30;99.90
15115;DHT22;7658;51.456;7.622;2022-09-09T06:33:40;16.30;99.90
15115;DHT22;7658;51.456;7.622;2022-09-09T06:36:14;16.40;99.90
15115;DHT22;7658;51.456;7.622;2022-09-09T06:38:41;16.40;99.90
15115;DHT22;7658;51.456;7.622;2022-09-09T06:41:09;16.30;99.90
15115;DHT22;7658;51.456;7.622;2022-09-09T06:43:35;16.40;99.90
15115;DHT22;7658;51.456;7.622;2022-09-09T06:46:20;16.30;99.90
15115;DHT22;7658;51.456;7.622;2022-09-09T06:48:47;16.30;99.90
15115;DHT22;7658;51.456;7.622;2022-09-09T06:51:21;16.30;99.90
15115;DHT22;7658;51.456;7.622;2022-09-09T06:53:51;16.40;99.90
15115;DHT22;7658;51.456;7.622;2022-09-09T06:56:20;16.40;99.90
15115;DHT22;7658;51.456;7.622;2022-09-09T06:58:49;16.40;99.90
15115;DHT22;7658;51.456;7.622;2022-09-09T07:01:17;16.40;99.90
15115;DHT22;7658;51.456;7.622;2022-09-09T07:03:49;16.40;99.90
15115;DHT22;7658;51.456;7.622;2022-09-09T07:06:24;16.40;99.90
15115;DHT22;7658;51.456;7.622;2022-09-09T07:09:02;16.40;99.90
15115;DHT22;7658;51.456;7.622;2022-09-09T07:11:31;16.40;99.90
15115;DHT22;7658;51.456;7.622;2022-09-09T07:13:59;16.40;99.90
15115;DHT22;7658;51.456;7.622;2022-09-09T07:16:26;16.40;99.90
15115;DHT22;7658;51.456;7.622;2022-09-09T07:18:53;16.40;99.90
15115;DHT22;7658;51.456;7.622;2022-09-09T07:21:23;16.30;99.90
15115;DHT22;7658;51.456;7.622;2022-09-09T07:23:49;16.30;99.90
15115;DHT22;7658;51.456;7.622;2022-09-09T07:26:18;16.30;99.90
15115;DHT22;7658;51.456;7.622;2022-09-09T07:28:48;16.30;99.90
15115;DHT22;7658;51.456;7.622;2022-09-09T07:31:17;16.30;99.90
15115;DHT22;7658;51.456;7.622;2022-09-09T07:33:44;16.30;99.90
15115;DHT22;7658;51.456;7.622;2022-09-09T07:36:30;16.40;99.90
15115;DHT22;7658;51.456;7.622;2022-09-09T07:39:01;16.40;99.90
15115;DHT22;7658;51.456;7.622;2022-09-09T07:41:30;16.40;99.90
15115;DHT22;7658;51.456;7.622;2022-09-09T07:43:58;16.50;99.90
15115;DHT22;7658;51.456;7.622;2022-09-09T07:46:25;16.50;99.90
15115;DHT22;7658;51.456;7.622;2022-09-09T07:48:55;16.50;99.90
15115;DHT22;7658;51.456;7.622;2022-09-09T07:51:27;16.50;99.90
15115;DHT22;7658;51.456;7.622;2022-09-09T07:53:55;16.50;99.90
15115;DHT22;7658;51.456;7.622;2022-09-09T07:56:23;16.50;99.90
15115;DHT22;7658;51.456;7.622;2022-09-09T07:58:50;16.50;99.90
15115;DHT22;7658;51.456;7.622;2022-09-09T08:01:28;16.60;99.90
15115;DHT22;7658;51.456;7.622;2022-09-09T08:04:10;16.60;99.90
15115;DHT22;7658;51.456;7.622;2022-09-09T08:06:39;16.70;99.90
15115;DHT22;7658;51.456;7.622;2022-09-09T08:09:05;16.80;99.90
15115;DHT22;7658;51.456;7.622;2022-09-09T08:11:32;16.80;99.90
15115;DHT22;7658;51.456;7.622;2022-09-09T08:13:59;16.80;99.90
15115;DHT22;7658;51.456;7.622;2022-09-09T08:16:28;16.80;99.90
15115;DHT22;7658;51.456;7.622;2022-09-09T08:18:55;16.80;99.90
15115;DHT22;7658;51.456;7.622;2022-09-09T08:21:24;16.80;99.90
15115;DHT22;7658;51.456;7.622;2022-09-09T08:23:52;16.80;99.90
15115;DHT22;7658;51.456;7.622;2022-09-09T08:26:23;16.80;99.90
15115;DHT22;7658;51.456;7.622;2022-09-09T08:28:51;16.90;99.90
15115;DHT22;7658;51.456;7.622;2022-09-09T08:31:29;16.90;99.90
15115;DHT22;7658;51.456;7.622;2022-09-09T08:33:56;16.90;99.90
15115;DHT22;7658;51.456;7.622;2022-09-09T08:36:24;17.00;99.90
15115;DHT22;7658;51.456;7.622;2022-09-09T08:38:53;17.00;99.90
15115;DHT22;7658;51.456;7.622;2022-09-09T08:50:07;17.80;99.90
15115;DHT22;7658;51.456;7.622;2022-09-09T08:53:00;17.80;99.90
15115;DHT22;7658;51.456;7.622;2022-09-09T08:58:19;17.80;99.90
15115;DHT22;7658;51.456;7.622;2022-09-09T09:09:20;18.10;99.90
15115;DHT22;7658;51.456;7.622;2022-09-09T09:11:53;18.30;99.90
15115;DHT22;7658;51.456;7.622;2022-09-09T09:14:22;18.40;99.90
15115;DHT22;7658;51.456;7.622;2022-09-09T09:19:18;18.60;99.90
15115;DHT22;7658;51.456;7.622;2022-09-09T09:30:24;18.90;99.90
15115;DHT22;7658;51.456;7.622;2022-09-09T09:33:02;19.10;99.90
15115;DHT22;7658;51.456;7.622;2022-09-09T09:35:31;19.50;99.90
15115;DHT22;7658;51.456;7.622;2022-09-09T09:37:59;19.60;99.90
15115;DHT22;7658;51.456;7.622;2022-09-09T09:40:26;19.80;99.90
15115;DHT22;7658;51.456;7.622;2022-09-09T09:42:58;20.10;99.90
15115;DHT22;7658;51.456;7.622;2022-09-09T09:45:44;20.20;99.90
15115;DHT22;7658;51.456;7.622;2022-09-09T09:48:12;20.30;99.90
15115;DHT22;7658;51.456;7.622;2022-09-09T09:50:51;20.30;99.90
15115;DHT22;7658;51.456;7.622;2022-09-09T09:53:26;20.40;99.90
15115;DHT22;7658;51.456;7.622;2022-09-09T09:56:08;20.50;99.90
15115;DHT22;7658;51.456;7.622;2022-09-09T10:01:39;20.90;99.90
15115;DHT22;7658;51.456;7.622;2022-09-09T10:04:22;21.00;99.90
15115;DHT22;7658;51.456;7.622;2022-09-09T10:06:49;21.00;99.90
15115;DHT22;7658;51.456;7.622;2022-09-09T10:09:31;20.70;99.90
15115;DHT22;7658;51.456;7.622;2022-09-09T10:14:37;20.20;99.90
15115;DHT22;7658;51.456;7.622;2022-09-09T10:17:26;20.10;99.90
15115;DHT22;7658;51.456;7.622;2022-09-09T10:22:44;19.80;99.90
15115;DHT22;7658;51.456;7.622;2022-09-09T10:25:43;19.80;99.90
15115;DHT22;7658;51.456;7.622;2022-09-09T10:28:33;19.80;99.90
15115;DHT22;7658;51.456;7.622;2022-09-09T10:31:15;19.90;99.90
15115;DHT22;7658;51.456;7.622;2022-09-09T10:33:51;20.00;99.90
15115;DHT22;7658;51.456;7.622;2022-09-09T10:36:26;20.10;99.90
15115;DHT22;7658;51.456;7.622;2022-09-09T10:39:04;20.10;99.90
15115;DHT22;7658;51.456;7.622;2022-09-09T10:44:23;20.00;99.90
15115;DHT22;7658;51.456;7.622;2022-09-09T10:50:18;20.30;99.90
15115;DHT22;7658;51.456;7.622;2022-09-09T10:53:36;20.40;99.90
15115;DHT22;7658;51.456;7.622;2022-09-09T10:56:09;20.40;99.90
15115;DHT22;7658;51.456;7.622;2022-09-09T10:58:44;20.20;99.90
15115;DHT22;7658;51.456;7.622;2022-09-09T11:01:28;19.90;99.90
15115;DHT22;7658;51.456;7.622;2022-09-09T11:04:28;19.80;99.90
15115;DHT22;7658;51.456;7.622;2022-09-09T11:07:00;19.70;99.90
15115;DHT22;7658;51.456;7.622;2022-09-09T11:09:35;19.50;99.90
15115;DHT22;7658;51.456;7.622;2022-09-09T11:12:03;19.60;99.90
15115;DHT22;7658;51.456;7.622;2022-09-09T11:14:43;19.80;99.90
15115;DHT22;7658;51.456;7.622;2022-09-09T11:17:16;19.90;99.90
15115;DHT22;7658;51.456;7.622;2022-09-09T11:19:44;19.80;99.90
15115;DHT22;7658;51.456;7.622;2022-09-09T11:22:32;19.80;99.90
15115;DHT22;7658;51.456;7.622;2022-09-09T11:25:13;19.70;99.90
15115;DHT22;7658;51.456;7.622;2022-09-09T11:27:55;19.90;99.90
15115;DHT22;7658;51.456;7.622;2022-09-09T11:38:21;21.50;99.90
15115;DHT22;7658;51.456;7.622;2022-09-09T11:41:02;21.60;99.90
15115;DHT22;7658;51.456;7.622;2022-09-09T11:43:39;21.30;99.90
15115;DHT22;7658;51.456;7.622;2022-09-09T11:46:06;21.10;99.90
15115;DHT22;7658;51.456;7.622;2022-09-09T11:48:44;21.20;99.90
15115;DHT22;7658;51.456;7.622;2022-09-09T11:51:27;21.40;99.90
15115;DHT22;7658;51.456;7.622;2022-09-09T11:53:56;21.70;99.90
15115;DHT22;7658;51.456;7.622;2022-09-09T11:56:32;21.80;99.90
15115;DHT22;7658;51.456;7.622;2022-09-09T11:59:06;21.50;99.90
15115;DHT22;7658;51.456;7.622;2022-09-09T12:01:34;21.40;99.90
15115;DHT22;7658;51.456;7.622;2022-09-09T12:04:16;21.70;99.90
15115;DHT22;7658;51.456;7.622;2022-09-09T12:06:51;22.00;99.90
15115;DHT22;7658;51.456;7.622;2022-09-09T12:17:26;22.90;99.90
15115;DHT22;7658;51.456;7.622;2022-09-09T12:20:12;22.40;99.90
15115;DHT22;7658;51.456;7.622;2022-09-09T12:23:08;21.90;99.90
15115;DHT22;7658;51.456;7.622;2022-09-09T12:26:00;21.80;99.90
15115;DHT22;7658;51.456;7.622;2022-09-09T12:31:34;21.90;99.90
15115;DHT22;7658;51.456;7.622;2022-09-09T12:34:26;21.50;99.90
15115;DHT22;7658;51.456;7.622;2022-09-09T12:37:02;21.40;99.90
15115;DHT22;7658;51.456;7.622;2022-09-09T12:39:37;21.00;99.90
15115;DHT22;7658;51.456;7.622;2022-09-09T12:42:04;20.90;99.90
15115;DHT22;7658;51.456;7.622;2022-09-09T12:44:30;20.80;99.90
15115;DHT22;7658;51.456;7.622;2022-09-09T12:47:01;20.70;99.90
15115;DHT22;7658;51.456;7.622;2022-09-09T12:49:32;20.60;99.90
15115;DHT22;7658;51.456;7.622;2022-09-09T12:52:06;20.50;99.90
15115;DHT22;7658;51.456;7.622;2022-09-09T12:54:35;20.40;99.90
15115;DHT22;7658;51.456;7.622;2022-09-09T12:57:02;20.10;99.90
15115;DHT22;7658;51.456;7.622;2022-09-09T13:00:03;20.00;99.90
15115;DHT22;7658;51.456;7.622;2022-09-09T13:02:30;20.10;99.90
15115;DHT22;7658;51.456;7.622;2022-09-09T13:05:08;20.90;99.90
15115;DHT22;7658;51.456;7.622;2022-09-09T13:07:42;21.70;99.90
15115;DHT22;7658;51.456;7.622;2022-09-09T13:10:11;22.00;99.90
15115;DHT22;7658;51.456;7.622;2022-09-09T13:12:38;21.70;99.90
15115;DHT22;7658;51.456;7.622;2022-09-09T13:15:21;21.40;99.90
15115;DHT22;7658;51.456;7.622;2022-09-09T13:17:58;21.20;99.90
15115;DHT22;7658;51.456;7.622;2022-09-09T13:20:27;20.90;99.90
15115;DHT22;7658;51.456;7.622;2022-09-09T13:22:54;20.70;99.90
15115;DHT22;7658;51.456;7.622;2022-09-09T13:25:26;20.50;99.90
15115;DHT22;7658;51.456;7.622;2022-09-09T13:27:53;20.40;99.90
15115;DHT22;7658;51.456;7.622;2022-09-09T13:32:48;20.20;99.90
15115;DHT22;7658;51.456;7.622;2022-09-09T13:35:26;20.10;99.90
15115;DHT22;7658;51.456;7.622;2022-09-09T13:37:52;20.10;99.90
15115;DHT22;7658;51.456;7.622;2022-09-09T13:40:21;20.10;99.90
15115;DHT22;7658;51.456;7.622;2022-09-09T13:42:50;20.20;99.90
15115;DHT22;7658;51.456;7.622;2022-09-09T13:45:20;20.40;99.90
15115;DHT22;7658;51.456;7.622;2022-09-09T13:47:46;20.60;99.90
15115;DHT22;7658;51.456;7.622;2022-09-09T13:52:49;20.70;99.90
15115;DHT22;7658;51.456;7.622;2022-09-09T13:55:17;20.70;99.90
15115;DHT22;7658;51.456;7.622;2022-09-09T13:58:16;20.60;99.90
15115;DHT22;7658;51.456;7.622;2022-09-09T14:00:45;20.50;99.90
15115;DHT22;7658;51.456;7.622;2022-09-09T14:03:12;20.30;99.90
15115;DHT22;7658;51.456;7.622;2022-09-09T14:05:38;20.20;99.90
15115;DHT22;7658;51.456;7.622;2022-09-09T14:08:04;20.10;99.90
15115;DHT22;7658;51.456;7.622;2022-09-09T14:10:31;20.10;99.90
15115;DHT22;7658;51.456;7.622;2022-09-09T14:12:56;20.00;99.90
15115;DHT22;7658;51.456;7.622;2022-09-09T14:15:22;20.00;99.90
15115;DHT22;7658;51.456;7.622;2022-09-09T14:17:48;19.90;99.90
15115;DHT22;7658;51.456;7.622;2022-09-09T14:20:14;19.70;99.90
15115;DHT22;7658;51.456;7.622;2022-09-09T14:22:41;19.40;99.90
15115;DHT22;7658;51.456;7.622;2022-09-09T14:25:07;19.10;99.90
15115;DHT22;7658;51.456;7.622;2022-09-09T14:27:33;18.80;99.90
15115;DHT22;7658;51.456;7.622;2022-09-09T14:29:59;18.50;99.90
15115;DHT22;7658;51.456;7.622;2022-09-09T14:32:26;18.40;99.90
15115;DHT22;7658;51.456;7.622;2022-09-09T14:34:52;18.30;99.90
15115;DHT22;7658;51.456;7.622;2022-09-09T14:37:18;18.20;99.90
15115;DHT22;7658;51.456;7.622;2022-09-09T14:39:44;18.20;99.90
15115;DHT22;7658;51.456;7.622;2022-09-09T14:42:10;18.20;99.90
15115;DHT22;7658;51.456;7.622;2022-09-09T14:44:37;18.10;99.90
15115;DHT22;7658;51.456;7.622;2022-09-09T14:47:04;18.00;99.90
15115;DHT22;7658;51.456;7.622;2022-09-09T14:49:31;18.10;99.90
15115;DHT22;7658;51.456;7.622;2022-09-09T14:51:57;18.10;99.90
15115;DHT22;7658;51.456;7.622;2022-09-09T14:54:22;18.20;99.90
15115;DHT22;7658;51.456;7.622;2022-09-09T14:56:48;18.30;99.90
15115;DHT22;7658;51.456;7.622;2022-09-09T14:59:14;18.60;99.90
15115;DHT22;7658;51.456;7.622;2022-09-09T15:01:40;18.70;99.90
15115;DHT22;7658;51.456;7.622;2022-09-09T15:04:06;18.80;99.90
15115;DHT22;7658;51.456;7.622;2022-09-09T15:06:34;18.80;99.90
15115;DHT22;7658;51.456;7.622;2022-09-09T15:09:02;18.70;99.90
15115;DHT22;7658;51.456;7.622;2022-09-09T15:11:30;18.70;99.90
15115;DHT22;7658;51.456;7.622;2022-09-09T15:13:56;18.70;99.90
15115;DHT22;7658;51.456;7.622;2022-09-09T15:16:25;18.60;99.90
15115;DHT22;7658;51.456;7.622;2022-09-09T15:18:53;18.40;99.90
15115;DHT22;7658;51.456;7.622;2022-09-09T15:21:22;18.20;99.90
15115;DHT22;7658;51.456;7.622;2022-09-09T15:23:48;18.20;99.90
15115;DHT22;7658;51.456;7.622;2022-09-09T15:26:15;18.20;99.90
15115;DHT22;7658;51.456;7.622;2022-09-09T15:28:42;18.10;99.90
15115;DHT22;7658;51.456;7.622;2022-09-09T15:31:22;18.00;99.90
15115;DHT22;7658;51.456;7.622;2022-09-09T15:33:53;18.00;99.90
15115;DHT22;7658;51.456;7.622;2022-09-09T15:36:25;18.00;99.90
15115;DHT22;7658;51.456;7.622;2022-09-09T15:38:51;18.00;99.90
15115;DHT22;7658;51.456;7.622;2022-09-09T15:41:19;17.80;99.90
15115;DHT22;7658;51.456;7.622;2022-09-09T15:43:47;17.80;99.90
15115;DHT22;7658;51.456;7.622;2022-09-09T15:48:43;17.40;99.90
15115;DHT22;7658;51.456;7.622;2022-09-09T15:51:10;17.00;99.90
15115;DHT22;7658;51.456;7.622;2022-09-09T15:53:37;16.80;99.90
15115;DHT22;7658;51.456;7.622;2022-09-09T15:56:05;16.60;99.90
15115;DHT22;7658;51.456;7.622;2022-09-09T15:58:32;16.50;99.90
15115;DHT22;7658;51.456;7.622;2022-09-09T16:01:09;16.40;99.90
15115;DHT22;7658;51.456;7.622;2022-09-09T16:03:41;16.20;99.90
15115;DHT22;7658;51.456;7.622;2022-09-09T16:06:08;16.10;99.90
15115;DHT22;7658;51.456;7.622;2022-09-09T16:08:37;16.00;99.90
15115;DHT22;7658;51.456;7.622;2022-09-09T16:11:11;15.90;99.90
15115;DHT22;7658;51.456;7.622;2022-09-09T16:13:40;15.80;99.90
15115;DHT22;7658;51.456;7.622;2022-09-09T16:16:07;15.70;99.90
15115;DHT22;7658;51.456;7.622;2022-09-09T16:18:41;15.70;99.90
15115;DHT22;7658;51.456;7.622;2022-09-09T16:21:11;15.60;99.90
15115;DHT22;7658;51.456;7.622;2022-09-09T16:23:38;15.60;99.90
15115;DHT22;7658;51.456;7.622;2022-09-09T16:26:04;15.60;99.90
15115;DHT22;7658;51.456;7.622;2022-09-09T16:28:30;15.60;99.90
15115;DHT22;7658;51.456;7.622;2022-09-09T16:30:56;15.50;99.90
15115;DHT22;7658;51.456;7.622;2022-09-09T16:33:24;15.30;99.90
15115;DHT22;7658;51.456;7.622;2022-09-09T16:35:51;15.40;99.90
15115;DHT22;7658;51.456;7.622;2022-09-09T16:38:17;15.40;99.90
15115;DHT22;7658;51.456;7.622;2022-09-09T16:40:43;15.40;99.90
15115;DHT22;7658;51.456;7.622;2022-09-09T16:43:08;15.50;99.90
15115;DHT22;7658;51.456;7.622;2022-09-09T16:45:42;15.60;99.90
15115;DHT22;7658;51.456;7.622;2022-09-09T16:48:08;15.70;99.90
15115;DHT22;7658;51.456;7.622;2022-09-09T16:50:34;15.80;99.90
15115;DHT22;7658;51.456;7.622;2022-09-09T16:53:03;15.80;99.90
15115;DHT22;7658;51.456;7.622;2022-09-09T16:55:32;15.80;99.90
15115;DHT22;7658;51.456;7.622;2022-09-09T16:57:58;15.80;99.90
15115;DHT22;7658;51.456;7.622;2022-09-09T17:00:23;15.80;99.90
15115;DHT22;7658;51.456;7.622;2022-09-09T17:02:49;15.90;99.90
15115;DHT22;7658;51.456;7.622;2022-09-09T17:05:15;15.80;99.90
15115;DHT22;7658;51.456;7.622;2022-09-09T17:07:40;15.80;99.90
15115;DHT22;7658;51.456;7.622;2022-09-09T17:10:07;15.80;99.90
15115;DHT22;7658;51.456;7.622;2022-09-09T17:12:33;15.80;99.90
15115;DHT22;7658;51.456;7.622;2022-09-09T17:15:01;15.80;99.90
15115;DHT22;7658;51.456;7.622;2022-09-09T17:17:29;15.80;99.90
15115;DHT22;7658;51.456;7.622;2022-09-09T17:19:57;15.80;99.90
15115;DHT22;7658;51.456;7.622;2022-09-09T17:22:23;15.80;99.90
15115;DHT22;7658;51.456;7.622;2022-09-09T17:24:50;15.80;99.90
15115;DHT22;7658;51.456;7.622;2022-09-09T17:27:15;15.80;99.90
15115;DHT22;7658;51.456;7.622;2022-09-09T17:29:41;15.70;99.90
15115;DHT22;7658;51.456;7.622;2022-09-09T17:32:07;15.70;99.90
15115;DHT22;7658;51.456;7.622;2022-09-09T17:34:33;15.70;99.90
15115;DHT22;7658;51.456;7.622;2022-09-09T17:36:59;15.60;99.90
15115;DHT22;7658;51.456;7.622;2022-09-09T17:39:25;15.50;99.90
15115;DHT22;7658;51.456;7.622;2022-09-09T17:41:51;15.50;99.90
15115;DHT22;7658;51.456;7.622;2022-09-09T17:44:18;15.50;99.90
15115;DHT22;7658;51.456;7.622;2022-09-09T17:46:45;15.40;99.90
15115;DHT22;7658;51.456;7.622;2022-09-09T17:49:14;15.40;99.90
15115;DHT22;7658;51.456;7.622;2022-09-09T17:51:42;15.30;99.90
15115;DHT22;7658;51.456;7.622;2022-09-09T17:54:11;15.20;99.90
15115;DHT22;7658;51.456;7.622;2022-09-09T17:56:38;15.20;99.90
15115;DHT22;7658;51.456;7.622;2022-09-09T17:59:07;15.20;99.90
15115;DHT22;7658;51.456;7.622;2022-09-09T18:01:37;15.20;99.90
15115;DHT22;7658;51.456;7.622;2022-09-09T18:04:05;15.20;99.90